Flight Track Log - Related Links

Times and Time Zones

All times are in EDT time to prevent confusion due to time zone crossing. See the SWA3497 flight status page for this flight to view local times or setup timezone preferences in your user account.

Time Position Orientation Groundspeed Altitude Reporting Facility
EDT Latitude Longitude Course Direction KTS MPH feet Rate Location/Type
Wed 04:15:15 PM 39.1500 -76.6500 142° Southeast 149 171 1,400  Level Potomac TRACON
Wed 04:16:15 PM 39.1167 -76.6167 142° Southeast 210 242 3,700 2,500 Climbing Potomac TRACON
Wed 04:17:15 PM 39.1000 -76.5500 108° East 235 270 6,400 2,563 Climbing Potomac TRACON
Wed 04:19:27 PM 39.1258 -76.3433 81° East 271 312 11,900 2,891 Climbing Washington Center
Wed 04:20:28 PM 39.1492 -76.2233 76° East 312 359 15,700 3,372 Climbing Washington Center
Wed 04:21:28 PM 39.1708 -76.0761 79° East 359 413 18,700 2,950 Climbing Washington Center
Wed 04:22:28 PM 39.1858 -75.9397 82° East 378 435 21,600 2,542 Climbing Washington Center
Wed 04:23:26 PM 39.2403 -75.8194 60° Northeast 378 435 23,700 2,420 Climbing Washington Center
Wed 04:24:27 PM 39.3197 -75.7150 45° Northeast 378 435 26,400 2,628 Climbing Washington Center
Wed 04:25:27 PM 39.3989 -75.6158 44° Northeast 384 442 29,000 800 Climbing Washington Center
Wed 04:27:42 PM 39.5706 -75.3925 45° Northeast 391 450 29,000  Level New York Center
Wed 04:28:42 PM 39.6475 -75.2922 45° Northeast 391 450 29,000  Level New York Center
Wed 04:29:43 PM 39.7203 -75.1889 48° Northeast 386 444 29,000  Level New York Center
Wed 04:30:40 PM 39.7931 -75.0775 50° Northeast 386 444 29,000  Level New York Center
Wed 04:31:41 PM 39.8675 -74.9764 46° Northeast 391 450 29,000  Level New York Center
Wed 04:32:41 PM 39.9381 -74.8725 48° Northeast 391 450 29,000  Level New York Center
Wed 04:33:42 PM 40.0125 -74.7711 46° Northeast 391 450 29,000  Level New York Center
Wed 04:34:42 PM 40.0869 -74.6642 48° Northeast 391 450 29,000 -305 Level New York Center
Wed 04:35:40 PM 40.1569 -74.5622 48° Northeast 386 444 28,400 -800 Descending New York Center
Wed 04:36:42 PM 40.2222 -74.4733 46° Northeast 381 438 27,400 -984 Descending New York Center
Wed 04:37:42 PM 40.3019 -74.3906 38° Northeast 366 421 26,400 -1,021 Descending New York Center
Wed 04:39:50 PM 40.4672 -74.2103 40° Northeast 361 415 24,200 -766 Descending Boston Center
Wed 04:40:50 PM 40.5433 -74.1278 39° Northeast 356 410 24,000 -100 Descending Boston Center
Wed 04:41:50 PM 40.6156 -74.0478 40° Northeast 351 404 24,000  Level Boston Center
Wed 04:42:50 PM 40.6936 -73.9731 36° Northeast 346 398 24,000  Level Boston Center
Wed 04:43:50 PM 40.7675 -73.8897 40° Northeast 346 398 24,000  Level Boston Center
Wed 04:44:50 PM 40.8417 -73.8064 40° Northeast 346 398 24,000 -100 Level Boston Center
Wed 04:45:50 PM 40.9178 -73.7092 44° Northeast 346 398 23,800 -500 Descending Boston Center
Wed 04:46:50 PM 40.9792 -73.6250 46° Northeast 346 398 23,000 -400 Descending Boston Center
Wed 04:47:50 PM 41.0633 -73.5358 39° Northeast 346 398 23,000  Level Boston Center
Wed 04:48:50 PM 41.1372 -73.4489 42° Northeast 346 398 23,000 -100 Level Boston Center
Wed 04:49:50 PM 41.2289 -73.4419 North 323 372 22,800 -1,000 Descending Boston Center
Wed 04:50:50 PM 41.3267 -73.4517 356° North 321 369 21,000 -1,950 Descending Boston Center
Wed 04:51:50 PM 41.4225 -73.4617 356° North 333 383 18,900 -1,500 Descending Boston Center
Wed 04:52:50 PM 41.5078 -73.4714 355° North 341 392 18,000 -409 Descending Boston Center
Wed 04:54:02 PM 41.6119 -73.4814 356° North 347 399 18,000 -91 Level Boston Center
Wed 04:55:02 PM 41.7286 -73.4886 357° North 347 399 17,800 -550 Descending Boston Center
Wed 04:56:02 PM 41.8181 -73.4986 355° North 335 386 16,900 -1,364 Descending Boston Center
Wed 04:57:14 PM 41.9078 -73.5083 355° North 322 371 14,800 -1,941 Descending Boston Center
Wed 04:57:44 PM 41.9722 -73.5181 354° North 314 361 13,600 -2,250 Descending Boston Center
Wed 04:58:02 PM 41.9972 -73.5156 North 312 359 13,000 -1,671 Descending Boston Center
Wed 04:59:03 PM 42.0825 -73.5283 354° North 302 348 11,400 -992 Descending Boston Center
Wed 05:00:03 PM 42.1681 -73.5186 North 315 362 11,000 -446 Descending Boston Center
Wed 05:01:04 PM 42.2536 -73.5172 North 317 365 10,500 -738 Descending Boston Center
Wed 05:02:05 PM 42.3303 -73.5494 343° North 285 328 9,500 -1,190 Descending Boston Center
Wed 05:03:05 PM 42.4031 -73.5761 345° North 270 311 8,100 -1,289 Descending Boston Center
Wed 05:04:06 PM 42.4758 -73.6028 345° North 270 311 6,900 -1,359 Descending Boston Center
Wed 05:05:13 PM 42.5567 -73.6322 345° North 265 305 5,200 -942 Descending Boston Center
Wed 05:06:07 PM 42.6253 -73.6561 346° North 268 308 5,000 -522 Descending Boston Center
Wed 05:07:08 PM 42.6958 -73.6831 344° North 265 305 4,200 -689 Descending Boston Center
Wed 05:08:09 PM 42.7622 -73.7042 347° North 242 278 3,600 -893 Descending Boston Center
Wed 05:09:09 PM 42.8097 -73.7364 334° Northwest 180 207 2,400 -1,140 Descending Boston Center
Wed 05:10:10 PM 42.8050 -73.8042 265° West 151 174 1,300 -934 Descending Boston Center
Wed 05:11:11 PM 42.7694 -73.8089 186° South 129 148 500 -787 Descending Boston Center

Login

Don't have an account? Register now (free) for customized features, flight alerts, and more!